Time;durP1;ratioP1;P1;durP2;ratioP2;P2;SDS_P1;SDS_P2;PMS_P1;PMS_P2;Temp;Humidity;BMP_temperature;BMP_pressure;BME280_temperature;BME280_humidity;BME280_pressure;Samples;Min_cycle;Max_cycle;Signal;HPM_P1;HPM_P2
2022/03/29 00:01:10;;;;;;;17.60;10.50;;;;;;;14.52;32.13;98730.59;5069282;28;20194;-67
2022/03/29 00:03:43;;;;;;;16.67;10.25;;;;;;;15.08;32.18;98832.75;5065826;28;20060;-68
2022/03/29 00:06:16;;;;;;;12.80;9.45;;;;;;;14.48;32.20;98713.16;5065769;28;20036;-67
2022/03/29 00:08:48;;;;;;;15.07;9.63;;;;;;;15.03;32.14;98802.94;5049569;28;20045;-68
2022/03/29 00:11:21;;;;;;;17.08;11.07;;;;;;;14.73;32.03;98765.41;5048987;28;20052;-68
2022/03/29 00:13:53;;;;;;;16.25;10.82;;;;;;;14.95;32.35;98812.53;5048966;28;20190;-69
2022/03/29 00:16:27;;;;;;;15.82;10.43;;;;;;;12.60;32.31;98422.97;5065642;28;20043;-66
2022/03/29 00:19:00;;;;;;;13.85;10.23;;;;;;;14.89;32.39;98797.03;5066998;28;20059;-68
2022/03/29 00:21:33;;;;;;;14.73;9.55;;;;;;;14.88;32.23;98796.19;5065549;28;20044;-68
2022/03/29 00:24:06;;;;;;;13.88;10.60;;;;;;;14.88;32.31;98812.19;5066526;28;20037;-68
2022/03/29 00:26:39;;;;;;;14.27;10.13;;;;;;;14.84;32.55;98786.72;5065464;28;20049;-68
2022/03/29 00:29:12;;;;;;;14.02;9.85;;;;;;;14.84;32.26;98781.38;5065518;28;20071;-68
2022/03/29 00:31:51;;;;;;;15.27;10.95;;;;;;;14.82;32.66;98778.00;5048828;28;20055;-69
2022/03/29 00:34:24;;;;;;;14.73;9.57;;;;;;;14.86;32.36;98803.47;5048892;28;20048;-68
2022/03/29 00:36:57;;;;;;;14.38;10.27;;;;;;;11.55;32.56;98243.38;5066069;28;20060;-68
2022/03/29 00:39:30;;;;;;;12.65;9.23;;;;;;;14.82;32.66;98804.69;5048614;28;20246;-68
2022/03/29 00:42:04;;;;;;;13.18;9.75;;;;;;;13.05;32.60;98488.50;5049039;28;20117;-68
2022/03/29 00:44:38;;;;;;;17.02;11.35;;;;;;;14.78;32.76;98768.56;5032751;28;20087;-67
2022/03/29 00:47:12;;;;;;;15.00;10.35;;;;;;;14.75;32.87;98761.66;5065914;28;20037;-68
2022/03/29 00:49:45;;;;;;;13.95;10.23;;;;;;;13.42;32.80;98550.31;5065176;28;20231;-68
2022/03/29 00:52:18;;;;;;;18.65;11.52;;;;;;;8.92;32.96;97809.38;5048552;28;20071;-68
2022/03/29 00:54:52;;;;;;;15.18;11.57;;;;;;;14.67;32.73;98765.91;5065531;28;20331;-69
2022/03/29 00:57:25;;;;;;;16.08;9.75;;;;;;;14.66;32.74;98767.72;5048703;28;20072;-68
2022/03/29 00:59:58;;;;;;;12.93;9.48;;;;;;;13.59;32.58;98620.03;5066492;28;20174;-67
2022/03/29 01:02:36;;;;;;;13.27;10.98;;;;;;;14.59;32.94;98758.50;5067998;28;20076;-68
2022/03/29 01:05:09;;;;;;;;;;;;;;;14.51;33.26;98757.38;5086893;28;20040;-67
2022/03/29 01:07:41;;;;;;;14.10;9.13;;;;;;;9.98;32.94;97995.56;5068788;28;19920;-67
2022/03/29 01:10:14;;;;;;;17.30;10.70;;;;;;;14.54;32.92;98749.16;5068785;28;20036;-68
2022/03/29 01:12:47;;;;;;;13.02;10.25;;;;;;;13.79;33.03;98939.72;5085946;28;20044;-68
2022/03/29 01:15:20;;;;;;;14.48;10.48;;;;;;;12.42;33.16;98420.78;5051307;28;20045;-68
2022/03/29 01:17:54;;;;;;;14.85;10.80;;;;;;;11.10;32.94;98216.75;5085506;28;20107;-68
2022/03/29 01:20:27;;;;;;;14.02;9.85;;;;;;;9.01;33.07;97813.16;5068326;28;20044;-68
2022/03/29 01:23:03;;;;;;;15.43;10.98;;;;;;;14.49;32.80;98730.84;5051249;28;20283;-69
2022/03/29 01:25:37;;;;;;;13.45;9.52;;;;;;;14.46;33.50;98725.78;5051475;28;20240;-68
2022/03/29 01:28:11;;;;;;;;;;;;;;;14.37;33.77;98727.34;5068397;28;20089;-68
2022/03/29 01:30:44;;;;;;;15.40;9.05;;;;;;;13.45;33.24;98565.22;5085718;28;19922;-68
2022/03/29 01:33:17;;;;;;;15.38;9.65;;;;;;;12.58;33.29;98440.84;5067916;28;20222;-69
2022/03/29 01:35:49;;;;;;;15.82;10.20;;;;;;;14.40;33.27;98712.94;5068317;28;20280;-69
2022/03/29 01:38:23;;;;;;;15.18;11.13;;;;;;;12.57;33.26;98409.94;5084669;28;20082;-68
2022/03/29 01:41:01;;;;;;;14.20;11.25;;;;;;;10.11;33.78;97996.31;5068341;28;20041;-68
2022/03/29 01:43:34;;;;;;;16.23;10.50;;;;;;;14.37;33.43;98706.03;5085339;28;20103;-69
2022/03/29 01:46:07;;;;;;;12.02;9.38;;;;;;;12.95;33.53;98474.25;5067745;28;20075;-69
2022/03/29 01:48:36;;;;;;;14.13;9.77;;;;;;;13.42;33.28;98538.84;5067856;28;20067;-69
2022/03/29 01:51:07;;;;;;;14.82;9.80;;;;;;;14.34;33.11;98702.78;5085513;28;20043;-68
2022/03/29 01:53:39;;;;;;;15.65;9.65;;;;;;;14.27;33.81;98696.25;5051108;28;20060;-69
2022/03/29 01:56:07;;;;;;;13.38;10.00;;;;;;;14.26;33.79;98684.72;5067993;28;20299;-69
2022/03/29 01:58:37;;;;;;;14.20;10.35;;;;;;;14.22;33.76;98682.44;5085052;28;20048;-69
2022/03/29 02:01:08;;;;;;;14.77;10.93;;;;;;;13.91;33.82;98638.75;5085284;28;20162;-68
2022/03/29 02:03:37;;;;;;;16.88;10.65;;;;;;;13.92;33.80;98640.47;5085116;28;20053;-67
2022/03/29 02:06:08;;;;;;;16.95;11.07;;;;;;;14.12;33.99;98677.00;5085298;28;20083;-67
2022/03/29 02:08:39;;;;;;;15.07;11.40;;;;;;;14.14;34.04;98675.06;5087439;28;20213;-67
2022/03/29 02:11:08;;;;;;;15.57;10.23;;;;;;;14.08;34.01;98672.88;5088759;28;20360;-67
2022/03/29 02:13:38;;;;;;;16.20;10.80;;;;;;;14.06;34.15;98673.00;5088694;28;20040;-67
2022/03/29 02:16:08;;;;;;;17.55;11.38;;;;;;;14.06;34.14;98666.84;5088950;28;20102;-67
2022/03/29 02:18:38;;;;;;;14.13;10.02;;;;;;;14.05;34.10;98668.66;5088933;28;20116;-68
2022/03/29 02:21:08;;;;;;;15.48;9.40;;;;;;;14.03;34.12;98667.09;5088931;28;20040;-67
2022/03/29 02:23:39;;;;;;;17.15;9.93;;;;;;;14.05;34.11;98663.31;5088880;28;20036;-67
2022/03/29 02:26:08;;;;;;;16.25;10.50;;;;;;;14.08;34.20;98663.06;5088587;28;20040;-67
2022/03/29 02:28:39;;;;;;;14.93;10.05;;;;;;;14.05;33.97;98658.00;5070974;28;20051;-67
2022/03/29 02:31:10;;;;;;;18.33;11.07;;;;;;;13.86;34.13;98619.63;5071034;28;20036;-67
2022/03/29 02:33:39;;;;;;;16.15;11.00;;;;;;;13.61;34.06;98580.81;5088315;28;20044;-67
2022/03/29 02:36:12;;;;;;;17.20;10.80;;;;;;;13.80;34.12;98615.66;5070956;28;20072;-67
2022/03/29 02:38:45;;;;;;;15.55;10.30;;;;;;;14.00;34.20;98654.00;5088566;28;20071;-67
2022/03/29 02:41:14;;;;;;;14.13;10.18;;;;;;;13.99;34.53;98649.66;5088807;28;20041;-67
2022/03/29 02:43:44;;;;;;;12.40;9.65;;;;;;;13.98;34.26;98650.63;5088434;28;20090;-67
2022/03/29 02:46:14;;;;;;;15.77;11.25;;;;;;;13.96;34.40;98639.25;5088629;28;20041;-67
2022/03/29 02:48:44;;;;;;;16.27;11.60;;;;;;;13.94;34.26;98642.03;5088003;28;20040;-66
2022/03/29 02:51:17;;;;;;;14.02;9.88;;;;;;;13.95;34.39;98638.38;5070645;28;20041;-67
2022/03/29 02:53:46;;;;;;;12.27;9.45;;;;;;;13.71;34.38;98595.09;5070442;28;20182;-67
2022/03/29 02:56:15;;;;;;;18.40;10.63;;;;;;;13.92;34.63;98640.47;5087969;28;20036;-67
2022/03/29 02:58:45;;;;;;;14.98;11.13;;;;;;;13.63;34.54;98587.69;5087971;28;20107;-67
2022/03/29 03:01:15;;;;;;;17.23;10.73;;;;;;;13.90;34.38;98637.06;5088433;28;20042;-67
2022/03/29 03:03:45;;;;;;;14.32;9.90;;;;;;;13.86;34.75;98635.63;5087768;28;20060;-67
2022/03/29 03:06:16;;;;;;;16.23;10.98;;;;;;;13.51;34.62;98579.84;5087762;28;20050;-68
2022/03/29 03:08:47;;;;;;;14.82;10.80;;;;;;;13.84;34.54;98637.56;5087661;28;20051;-67
2022/03/29 03:11:15;;;;;;;15.63;11.07;;;;;;;13.84;34.56;98627.75;5087680;28;20060;-67
2022/03/29 03:13:46;;;;;;;17.52;10.65;;;;;;;13.87;34.47;98632.84;5087631;28;20098;-68
2022/03/29 03:16:16;;;;;;;14.13;10.23;;;;;;;13.88;34.52;98633.69;5088116;28;20108;-68
2022/03/29 03:18:46;;;;;;;17.48;10.70;;;;;;;13.87;34.48;98629.31;5087217;28;20048;-68
2022/03/29 03:21:16;;;;;;;16.27;11.15;;;;;;;13.64;34.45;98591.22;5087578;28;20036;-68
2022/03/29 03:23:48;;;;;;;15.23;9.48;;;;;;;-0.66;34.57;96242.53;5087974;28;20040;-69
2022/03/29 03:26:16;;;;;;;13.50;10.55;;;;;;;13.56;34.42;98565.19;5070562;28;20040;-69
2022/03/29 03:28:46;;;;;;;14.80;10.68;;;;;;;13.91;34.43;98623.63;5087999;28;20232;-68
2022/03/29 03:31:17;;;;;;;16.63;12.38;;;;;;;13.94;34.54;98622.53;5070418;28;20232;-68
2022/03/29 03:33:47;;;;;;;15.77;9.82;;;;;;;13.93;34.36;98610.19;5088398;28;20082;-68
2022/03/29 03:36:17;;;;;;;16.85;10.45;;;;;;;13.96;34.23;98613.44;5070102;28;20040;-68
2022/03/29 03:38:48;;;;;;;15.90;10.57;;;;;;;13.94;34.35;98607.41;5069771;28;20051;-69
2022/03/29 03:41:17;;;;;;;14.48;9.10;;;;;;;13.94;34.46;98606.56;5087609;28;20036;-68
2022/03/29 03:43:47;;;;;;;15.85;10.30;;;;;;;13.92;34.36;98611.16;5087327;28;20064;-68
2022/03/29 03:46:17;;;;;;;14.98;10.23;;;;;;;13.91;34.56;98612.13;5086935;28;20040;-69
2022/03/29 03:48:48;;;;;;;15.55;10.43;;;;;;;13.92;34.43;98609.34;5087181;28;20090;-67
2022/03/29 03:51:17;;;;;;;18.73;11.93;;;;;;;13.68;34.43;98566.88;5070011;28;20056;-67
2022/03/29 03:53:50;;;;;;;15.77;11.05;;;;;;;13.92;34.48;98605.81;5087053;28;20044;-68
2022/03/29 03:56:18;;;;;;;15.18;11.40;;;;;;;13.89;34.53;98609.59;5086898;28;20132;-68
2022/03/29 03:58:48;;;;;;;13.70;9.70;;;;;;;13.35;34.61;98537.59;5087073;28;20052;-67
2022/03/29 04:01:18;;;;;;;18.60;11.13;;;;;;;13.89;34.77;98604.25;5086768;28;20082;-68
2022/03/29 04:03:48;;;;;;;17.17;10.38;;;;;;;13.86;34.55;98609.84;5086510;28;20048;-68
2022/03/29 04:06:18;;;;;;;17.80;11.55;;;;;;;13.72;35.09;98602.94;5069222;28;20104;-68
2022/03/29 04:08:50;;;;;;;15.48;11.57;;;;;;;13.50;35.91;98613.59;5086384;28;20051;-69
2022/03/29 04:11:20;;;;;;;16.80;11.35;;;;;;;13.29;36.23;98608.13;5086965;28;20039;-68
2022/03/29 04:13:50;;;;;;;19.58;11.52;;;;;;;12.91;36.90;98573.00;5052943;28;20342;-69
2022/03/29 04:16:20;;;;;;;18.38;10.90;;;;;;;12.86;37.53;98605.25;5069497;28;20149;-68
2022/03/29 04:18:50;;;;;;;16.42;10.63;;;;;;;11.95;36.97;98456.22;5086537;28;20087;-68
2022/03/29 04:21:20;;;;;;;16.35;11.18;;;;;;;13.02;36.87;98616.41;5069298;28;20082;-68
2022/03/29 04:23:52;;;;;;;19.92;11.43;;;;;;;13.03;37.00;98614.59;5086674;28;20040;-68
2022/03/29 04:26:21;;;;;;;17.83;10.27;;;;;;;13.00;36.98;98621.00;5069151;28;20028;-68
2022/03/29 04:28:51;;;;;;;18.05;10.50;;;;;;;10.39;36.99;98199.03;5069048;28;20040;-68
2022/03/29 04:31:22;;;;;;;18.40;10.02;;;;;;;12.90;37.15;98617.38;5085689;28;20100;-68
2022/03/29 04:33:52;;;;;;;13.65;9.38;;;;;;;12.91;37.17;98615.53;5069080;28;20237;-68
2022/03/29 04:36:23;;;;;;;17.77;9.48;;;;;;;12.86;37.44;98612.38;5068568;28;20062;-67
2022/03/29 04:38:53;;;;;;;13.75;10.52;;;;;;;12.52;37.92;98564.44;5068960;28;20300;-67
2022/03/29 04:41:22;;;;;;;13.10;10.07;;;;;;;12.67;37.96;98612.94;5085990;28;20063;-68
2022/03/29 04:43:52;;;;;;;15.90;9.68;;;;;;;12.60;37.85;98609.03;5085148;28;20040;-67
2022/03/29 04:46:22;;;;;;;20.17;10.95;;;;;;;11.27;37.82;98393.16;5086750;28;20055;-67
2022/03/29 04:48:52;;;;;;;19.75;10.02;;;;;;;12.59;37.80;98605.53;5086033;28;20075;-68
2022/03/29 04:51:22;;;;;;;14.35;9.93;;;;;;;12.04;38.15;98513.13;5068514;28;20044;-68
2022/03/29 04:53:54;;;;;;;19.83;11.60;;;;;;;12.49;38.02;98605.38;5086179;28;20103;-68
2022/03/29 04:56:22;;;;;;;14.43;10.77;;;;;;;12.46;38.22;98594.97;5051845;28;20099;-68
2022/03/29 04:58:52;;;;;;;29.60;11.73;;;;;;;12.46;38.22;98599.44;5085753;28;20145;-68
2022/03/29 05:01:23;;;;;;;19.27;12.40;;;;;;;12.23;38.12;98553.34;5085884;28;20036;-69
2022/03/29 05:03:53;;;;;;;21.40;12.65;;;;;;;12.46;38.38;98584.34;5085467;28;20056;-68
2022/03/29 05:06:23;;;;;;;19.30;13.32;;;;;;;12.38;38.44;98584.06;5085842;28;20084;-68
2022/03/29 05:08:54;;;;;;;22.17;12.82;;;;;;;12.45;38.31;98589.78;5085561;28;20104;-68
2022/03/29 05:11:23;;;;;;;18.60;10.98;;;;;;;12.48;38.49;98592.22;5085624;28;20055;-68
2022/03/29 05:13:53;;;;;;;19.10;11.73;;;;;;;12.47;38.48;98594.03;5068179;28;20044;-68
2022/03/29 05:16:23;;;;;;;16.35;11.45;;;;;;;12.49;38.40;98592.09;5085606;28;20046;-69
2022/03/29 05:18:53;;;;;;;15.18;10.63;;;;;;;12.58;38.16;98589.72;5085807;28;20041;-68
2022/03/29 05:21:24;;;;;;;16.35;11.23;;;;;;;12.67;38.32;98592.53;5085813;28;20044;-68
2022/03/29 05:23:55;;;;;;;19.98;12.13;;;;;;;12.73;37.54;98583.22;5086076;28;20086;-68
2022/03/29 05:26:26;;;;;;;17.05;11.00;;;;;;;11.83;37.52;98438.56;5085826;28;20296;-68
2022/03/29 05:28:56;;;;;;;13.90;9.88;;;;;;;12.87;37.64;98580.38;5067878;28;20071;-69
2022/03/29 05:31:26;;;;;;;13.75;9.50;;;;;;;12.96;37.58;98576.16;5067776;28;20090;-69
2022/03/29 05:33:55;;;;;;;14.93;10.82;;;;;;;12.79;37.27;98535.75;5085546;28;20116;-69
2022/03/29 05:36:25;;;;;;;14.13;10.30;;;;;;;13.11;37.36;98575.81;5085359;28;20108;-68
2022/03/29 05:38:56;;;;;;;14.52;10.90;;;;;;;13.15;37.43;98582.59;5067851;28;20040;-69
2022/03/29 05:41:25;;;;;;;14.15;10.43;;;;;;;13.18;37.57;98583.31;5085284;28;20128;-69
2022/03/29 05:43:55;;;;;;;16.05;10.48;;;;;;;13.23;37.24;98579.31;5088471;28;20040;-69
2022/03/29 05:49:15;;;;;;;18.65;11.20;;;;;;;13.36;37.55;98568.56;5089503;28;20037;-68
2022/03/29 05:51:49;;;;;;;17.98;10.50;;;;;;;12.23;36.96;98367.38;5089492;28;20353;-68
2022/03/29 05:54:23;;;;;;;17.77;12.00;;;;;;;12.77;37.14;98470.38;5089031;28;20402;-68
2022/03/29 05:56:55;;;;;;;18.10;11.85;;;;;;;13.35;36.94;98537.59;5089427;28;20203;-68
2022/03/29 05:59:27;;;;;;;18.45;11.70;;;;;;;13.66;36.97;98581.28;5089412;28;20346;-68
2022/03/29 06:02:04;;;;;;;20.77;11.77;;;;;;;13.66;36.85;98583.94;5054936;28;20050;-68
2022/03/29 06:04:37;;;;;;;16.95;11.25;;;;;;;13.50;37.05;98538.22;5089026;28;20279;-68
2022/03/29 06:07:09;;;;;;;19.13;12.35;;;;;;;13.70;36.92;98578.25;5089391;28;20036;-69
2022/03/29 06:09:43;;;;;;;20.48;12.13;;;;;;;13.37;37.09;98501.06;5088915;28;20040;-69
2022/03/29 06:12:21;;;;;;;17.33;12.20;;;;;;;13.82;37.28;98554.28;5089112;28;20086;-69
2022/03/29 06:14:54;;;;;;;17.83;11.13;;;;;;;13.90;36.49;98562.47;5088817;28;20088;-68
2022/03/29 06:17:27;;;;;;;17.65;12.52;;;;;;;13.58;37.03;98517.16;5088785;28;20086;-68
2022/03/29 06:19:59;;;;;;;15.55;11.18;;;;;;;13.88;36.79;98567.09;5071239;28;20051;-69
2022/03/29 06:22:32;;;;;;;20.00;12.18;;;;;;;13.96;36.62;98573.50;5088985;28;20219;-69
2022/03/29 06:25:07;;;;;;;17.25;12.57;;;;;;;13.96;36.82;98570.81;5071217;28;20195;-69
2022/03/29 06:27:39;;;;;;;18.05;12.13;;;;;;;14.04;36.62;98557.72;5088635;28;20086;-69
2022/03/29 06:30:12;;;;;;;15.45;10.93;;;;;;;13.68;36.21;98476.34;5088792;28;20047;-69
2022/03/29 06:32:46;;;;;;;16.80;10.95;;;;;;;14.30;36.10;98555.56;5088554;28;20041;-68
2022/03/29 06:35:21;;;;;;;14.77;10.73;;;;;;;14.24;35.94;98513.44;5088525;28;20086;-68
2022/03/29 06:37:56;;;;;;;14.70;10.85;;;;;;;14.37;35.84;98522.09;5088473;28;20040;-69
2022/03/29 06:40:30;;;;;;;18.45;12.35;;;;;;;14.68;35.67;98559.59;5088478;28;20040;-67
2022/03/29 06:43:02;;;;;;;19.17;12.20;;;;;;;14.37;35.66;98498.13;5071391;28;20059;-67
2022/03/29 06:45:35;;;;;;;14.07;10.93;;;;;;;14.85;35.25;98551.00;5054004;28;20066;-67
2022/03/29 06:48:08;;;;;;;16.85;11.15;;;;;;;14.55;35.23;98478.88;5070573;28;20040;-66
2022/03/29 06:50:40;;;;;;;14.90;10.38;;;;;;;15.06;35.30;98553.66;5088217;28;20044;-68
2022/03/29 06:53:13;;;;;;;16.90;12.02;;;;;;;15.08;35.22;98551.69;5088344;28;20181;-68
2022/03/29 06:55:46;;;;;;;15.23;10.65;;;;;;;15.16;35.04;98556.38;5086954;28;20040;-67
2022/03/29 06:58:19;;;;;;;14.75;11.20;;;;;;;15.26;34.98;98552.75;5071212;28;20048;-67
2022/03/29 07:00:51;;;;;;;19.17;11.68;;;;;;;15.39;34.76;98549.88;5088020;28;20062;-67
2022/03/29 07:03:24;;;;;;;14.02;10.43;;;;;;;15.46;34.33;98550.19;5087625;28;20060;-68
2022/03/29 07:05:58;;;;;;;16.25;10.68;;;;;;;15.54;33.99;98540.50;5087808;28;20040;-68
2022/03/29 07:08:31;;;;;;;;;;;;;;;15.61;33.62;98549.66;5088448;28;20044;-67
2022/03/29 07:11:21;;;;;;;13.90;9.85;;;;;;;15.76;33.65;98550.16;5070092;28;19917;-68
2022/03/29 07:13:54;;;;;;;15.80;10.82;;;;;;;15.95;33.47;98541.34;5087504;28;20044;-68
2022/03/29 07:16:23;;;;;;;16.73;11.07;;;;;;;16.05;33.13;98547.56;5087526;28;20036;-68
2022/03/29 07:18:54;;;;;;;15.98;10.35;;;;;;;16.19;33.24;98541.81;5087755;28;20041;-68
2022/03/29 07:21:24;;;;;;;16.42;11.88;;;;;;;16.31;32.12;98535.34;5088001;28;20033;-69
2022/03/29 07:23:54;;;;;;;16.23;10.82;;;;;;;16.50;32.57;98547.84;5087656;28;20048;-67
2022/03/29 07:26:29;;;;;;;17.95;10.60;;;;;;;16.13;32.33;98450.63;5087376;28;20040;-67
2022/03/29 07:29:00;;;;;;;15.55;10.07;;;;;;;16.73;31.89;98532.38;5069817;28;20250;-67
2022/03/29 07:31:30;;;;;;;18.95;12.00;;;;;;;16.62;32.30;98495.06;5087266;28;20041;-67
2022/03/29 07:34:00;;;;;;;20.80;11.80;;;;;;;16.70;31.45;98497.03;5086846;28;20052;-67
2022/03/29 07:36:30;;;;;;;15.65;10.80;;;;;;;17.10;31.24;98537.78;5087062;28;20036;-67
2022/03/29 07:39:00;;;;;;;20.25;11.13;;;;;;;17.21;31.12;98536.81;5052853;28;20045;-67
2022/03/29 07:41:33;;;;;;;17.92;10.68;;;;;;;17.36;31.12;98535.34;5087614;28;20296;-67
2022/03/29 07:44:02;;;;;;;12.88;9.98;;;;;;;17.44;30.82;98532.75;5069300;28;20308;-67
2022/03/29 07:46:31;;;;;;;14.55;10.25;;;;;;;17.19;30.85;98488.72;5086905;28;20284;-67
2022/03/29 07:49:01;;;;;;;14.23;10.48;;;;;;;17.48;30.48;98534.16;5087079;28;20318;-67
2022/03/29 07:51:32;;;;;;;16.35;11.25;;;;;;;17.58;30.34;98543.00;5086169;28;20338;-67
2022/03/29 07:54:03;;;;;;;14.57;10.68;;;;;;;17.69;30.17;98541.13;5086094;28;20300;-67
2022/03/29 07:56:33;;;;;;;15.23;10.52;;;;;;;17.86;30.13;98537.66;5069751;28;20082;-68
2022/03/29 07:59:01;;;;;;;14.75;10.85;;;;;;;17.67;29.84;98497.56;5086730;28;20044;-68
2022/03/29 08:01:31;;;;;;;13.95;9.60;;;;;;;18.00;29.76;98539.81;5087298;28;20029;-68
2022/03/29 08:04:02;;;;;;;14.15;10.43;;;;;;;18.06;29.16;98541.06;5086460;28;20112;-68
2022/03/29 08:06:32;;;;;;;13.82;10.63;;;;;;;18.11;29.13;98541.44;5086616;28;20067;-68
2022/03/29 08:09:02;;;;;;;15.65;10.38;;;;;;;17.27;29.29;98410.34;5086529;28;20037;-68
2022/03/29 08:11:36;;;;;;;14.15;9.80;;;;;;;18.03;29.24;98501.13;5086362;28;20304;-68
2022/03/29 08:14:08;;;;;;;17.10;11.60;;;;;;;18.39;29.35;98535.00;5086399;28;20036;-68
2022/03/29 08:16:41;;;;;;;21.05;11.73;;;;;;;18.41;28.56;98532.19;5052998;28;20087;-68
2022/03/29 08:19:14;;;;;;;12.95;10.20;;;;;;;18.49;28.62;98530.41;5086151;28;20040;-68
2022/03/29 08:21:49;;;;;;;16.42;12.38;;;;;;;18.65;28.75;98531.56;5086191;28;20296;-68
2022/03/29 08:24:25;;;;;;;16.42;10.82;;;;;;;18.70;28.41;98526.59;5086200;28;20090;-68
2022/03/29 08:26:59;;;;;;;15.48;11.38;;;;;;;18.83;28.36;98518.97;5086213;28;20086;-68
2022/03/29 08:29:31;;;;;;;16.08;10.32;;;;;;;18.99;28.37;98520.91;5068751;28;20040;-68
2022/03/29 08:32:04;;;;;;;15.18;11.18;;;;;;;19.21;28.38;98525.75;5086157;28;20090;-68
2022/03/29 08:34:36;;;;;;;13.60;10.40;;;;;;;19.52;28.30;98520.75;5086289;28;20041;-68
2022/03/29 08:37:09;;;;;;;17.25;11.32;;;;;;;19.74;27.83;98517.47;5068437;28;20342;-68
2022/03/29 08:39:41;;;;;;;15.60;10.15;;;;;;;19.94;27.43;98523.44;5086293;28;20037;-68
2022/03/29 08:42:16;;;;;;;13.93;10.40;;;;;;;20.06;27.36;98522.13;5086375;28;20064;-68
2022/03/29 08:44:49;;;;;;;13.88;10.38;;;;;;;20.22;27.38;98509.72;5068725;28;20085;-68
2022/03/29 08:47:21;;;;;;;13.80;9.20;;;;;;;20.14;27.37;98479.09;5085899;28;20040;-68
2022/03/29 08:49:54;;;;;;;15.52;10.60;;;;;;;20.24;27.16;98462.00;5086050;28;20036;-68
2022/03/29 08:52:27;;;;;;;13.48;9.52;;;;;;;20.53;26.93;98510.78;5085560;28;20182;-68
2022/03/29 08:55:03;;;;;;;12.88;9.63;;;;;;;18.70;27.20;98202.69;5068317;28;20040;-68
2022/03/29 08:57:37;;;;;;;12.82;8.90;;;;;;;20.62;26.08;98512.47;5085803;28;20086;-68
2022/03/29 09:00:10;;;;;;;14.18;9.68;;;;;;;20.51;27.04;98518.19;5086009;28;20040;-68
2022/03/29 09:02:43;;;;;;;11.80;8.75;;;;;;;20.42;26.85;98511.94;5085725;28;20056;-68
2022/03/29 09:05:17;;;;;;;13.05;10.00;;;;;;;20.11;27.24;98482.13;5085686;28;20098;-68
2022/03/29 09:07:53;;;;;;;12.77;9.70;;;;;;;20.28;26.93;98511.78;5085647;28;20041;-68
2022/03/29 09:10:40;;;;;;;13.98;9.13;;;;;;;20.35;26.64;98505.56;5052473;28;20315;-68
2022/03/29 09:13:22;;;;;;;13.65;10.35;;;;;;;20.38;26.56;98448.72;5067779;28;20041;-68
2022/03/29 09:15:57;;;;;;;14.60;10.23;;;;;;;20.63;27.03;98492.59;5068084;28;20343;-68
2022/03/29 09:18:30;;;;;;;12.50;8.50;;;;;;;20.80;27.33;98494.28;5085073;28;20307;-68
2022/03/29 09:21:08;;;;;;;13.52;8.48;;;;;;;21.08;26.37;98481.28;5085571;28;20112;-68
2022/03/29 09:23:42;;;;;;;11.98;8.60;;;;;;;21.25;26.76;98478.53;5085367;28;20036;-68
2022/03/29 09:26:26;;;;;;;12.30;8.57;;;;;;;21.12;26.02;98512.25;5085481;28;20036;-69
2022/03/29 09:29:01;;;;;;;;;;;;;;;21.03;25.83;98472.03;5068241;28;20047;-68
2022/03/29 09:31:29;;;;;;;12.73;8.27;;;;;;;21.08;26.64;98488.53;5085220;28;19920;-68
2022/03/29 09:34:12;;;;;;;10.63;8.40;;;;;;;20.55;26.13;98414.56;5067673;28;20036;-68
2022/03/29 09:36:48;;;;;;;11.05;8.18;;;;;;;20.78;26.77;98445.13;5085259;28;20041;-68
2022/03/29 09:39:38;;;;;;;11.27;8.07;;;;;;;21.01;26.08;98471.34;5084920;28;20043;-68
2022/03/29 09:42:13;;;;;;;10.73;8.50;;;;;;;21.12;26.42;98488.00;5067842;28;20052;-68
2022/03/29 09:44:48;;;;;;;11.48;9.38;;;;;;;21.07;26.24;98495.78;5068130;28;20067;-68
2022/03/29 09:47:22;;;;;;;12.68;9.48;;;;;;;21.13;27.01;98478.91;5085060;28;20085;-68
2022/03/29 09:49:57;;;;;;;11.73;7.55;;;;;;;21.25;26.32;98465.91;5085199;28;20288;-68
2022/03/29 09:52:31;;;;;;;10.65;7.78;;;;;;;20.52;26.37;98339.53;5067967;28;20239;-68
2022/03/29 09:55:13;;;;;;;14.40;8.63;;;;;;;21.34;25.84;98464.88;5067395;28;20036;-68
2022/03/29 09:57:47;;;;;;;12.25;8.13;;;;;;;21.42;26.40;98461.31;5085142;28;20048;-68
2022/03/29 10:00:33;;;;;;;;;;;;;;;21.43;25.38;98462.97;5085667;28;20045;-68
2022/03/29 10:03:09;;;;;;;14.07;8.05;;;;;;;21.47;25.76;98448.13;5084871;28;19959;-68
2022/03/29 10:05:42;;;;;;;11.98;8.80;;;;;;;21.77;26.36;98444.59;5084868;28;20094;-68
2022/03/29 10:11:07;;;;;;;9.18;7.40;;;;;;;22.36;25.38;98435.94;5085018;28;20048;-68
2022/03/29 10:13:40;;;;;;;10.68;7.82;;;;;;;21.41;25.28;98317.59;5067293;28;20041;-68
2022/03/29 10:16:16;;;;;;;13.73;9.32;;;;;;;22.15;24.52;98427.69;5084570;28;20041;-69
2022/03/29 10:18:48;;;;;;;11.75;8.95;;;;;;;22.05;24.75;98425.25;5084604;28;20308;-69
2022/03/29 10:21:21;;;;;;;11.40;8.50;;;;;;;22.06;24.74;98422.34;5084764;28;20040;-69
2022/03/29 10:23:54;;;;;;;11.50;8.35;;;;;;;21.06;25.07;98251.66;5067063;28;20079;-69
2022/03/29 10:26:28;;;;;;;11.18;7.63;;;;;;;22.12;24.15;98417.25;5084895;28;20037;-69
2022/03/29 10:28:57;;;;;;;11.60;8.45;;;;;;;22.09;24.80;98411.19;5086274;28;20048;-66
2022/03/29 10:31:33;;;;;;;14.82;9.18;;;;;;;22.18;24.54;98408.44;5055029;28;20087;-69
2022/03/29 10:34:12;;;;;;;12.05;7.78;;;;;;;22.24;23.71;98399.63;5070651;28;20043;-68
2022/03/29 10:37:11;;;;;;;14.07;9.25;;;;;;;21.99;23.47;98358.50;5070435;28;20040;-69
2022/03/29 10:39:49;;;;;;;12.35;8.57;;;;;;;22.33;23.80;98387.72;5087877;28;20211;-69
2022/03/29 10:42:46;;;;;;;11.30;8.98;;;;;;;22.26;22.95;98363.34;5087970;28;20296;-69
2022/03/29 10:45:21;;;;;;;12.40;9.10;;;;;;;22.54;23.72;98385.22;5088348;28;20044;-66
2022/03/29 10:48:09;;;;;;;11.68;7.82;;;;;;;22.33;23.27;98334.59;5088237;28;20350;-66
2022/03/29 10:51:01;;;;;;;13.85;9.73;;;;;;;22.40;23.11;98338.25;5088285;28;20063;-66
2022/03/29 10:53:35;;;;;;;15.55;9.45;;;;;;;22.45;23.39;98323.38;5087877;28;20090;-66
2022/03/29 10:56:23;;;;;;;14.88;9.27;;;;;;;22.83;23.09;98378.19;5088155;28;20082;-66
2022/03/29 10:59:12;;;;;;;11.63;8.93;;;;;;;22.25;23.06;98282.56;5071556;28;20060;-65
2022/03/29 11:01:44;;;;;;;11.77;8.30;;;;;;;22.78;23.92;98361.69;5070818;28;20056;-65
2022/03/29 11:04:26;;;;;;;13.23;9.05;;;;;;;22.70;23.09;98374.25;5087523;28;20212;-65
2022/03/29 11:07:14;;;;;;;13.73;9.50;;;;;;;22.64;22.50;98387.66;5087821;28;20075;-65
2022/03/29 11:09:46;;;;;;;20.88;8.82;;;;;;;22.44;23.88;98311.72;5087776;28;20112;-65
2022/03/29 11:12:43;;;;;;;12.52;8.82;;;;;;;22.49;22.32;98330.06;5087300;28;20059;-66
2022/03/29 11:15:45;;;;;;;11.75;9.40;;;;;;;22.21;22.71;98325.25;5087653;28;20086;-65
2022/03/29 11:18:48;;;;;;;13.30;9.35;;;;;;;22.52;22.49;98359.41;5087396;28;20041;-65
2022/03/29 11:21:39;;;;;;;12.60;9.35;;;;;;;22.30;22.64;98331.41;5087292;28;20040;-65
2022/03/29 11:24:13;;;;;;;10.95;8.68;;;;;;;21.93;23.36;98281.84;5087151;28;20040;-65
2022/03/29 11:26:58;;;;;;;15.98;9.40;;;;;;;22.47;22.72;98359.13;5087133;28;20045;-66
2022/03/29 11:29:31;;;;;;;10.95;9.07;;;;;;;22.48;23.60;98364.34;5069757;28;20223;-66
2022/03/29 11:32:05;;;;;;;12.38;10.35;;;;;;;22.52;23.22;98340.50;5087428;28;20067;-65
2022/03/29 11:34:40;;;;;;;14.95;9.07;;;;;;;22.70;23.18;98336.44;5086544;28;20111;-65
2022/03/29 11:37:27;;;;;;;15.55;10.00;;;;;;;22.69;22.37;98326.66;5069810;28;20044;-66
2022/03/29 11:40:02;;;;;;;16.80;10.90;;;;;;;22.97;23.43;98328.69;5086777;28;20036;-65
2022/03/29 11:42:45;;;;;;;11.00;8.48;;;;;;;22.86;22.32;98292.19;5087020;28;20044;-64
2022/03/29 11:45:19;;;;;;;10.45;8.27;;;;;;;23.13;22.85;98312.28;5087281;28;20040;-65
2022/03/29 11:47:53;;;;;;;14.00;9.07;;;;;;;22.97;23.02;98315.19;5087210;28;20090;-66
2022/03/29 11:50:30;;;;;;;13.60;10.38;;;;;;;22.90;22.73;98307.00;5087058;28;20044;-65
2022/03/29 11:53:15;;;;;;;13.50;9.38;;;;;;;22.83;23.14;98302.53;5086754;28;20051;-65
2022/03/29 11:56:09;;;;;;;11.65;8.85;;;;;;;22.93;22.35;98292.28;5069261;28;20037;-65